createdAt,value
2018-11-06T00:00:57.444Z,99732.91
2018-11-06T00:05:59.898Z,99722.71
2018-11-06T00:11:02.331Z,99727.81
2018-11-06T00:16:05.314Z,99716.60
2018-11-06T00:21:07.979Z,99723.62
2018-11-06T00:26:10.324Z,99736.84
2018-11-06T00:31:12.760Z,99732.38
2018-11-06T00:36:15.095Z,99730.78
2018-11-06T00:41:17.592Z,99726.58
2018-11-06T00:46:20.108Z,99736.06
2018-11-06T00:51:22.639Z,99734.14
2018-11-06T00:56:25.029Z,99737.78
2018-11-06T01:01:27.576Z,99725.39
2018-11-06T01:06:30.155Z,99733.67
2018-11-06T01:11:40.120Z,99737.59
2018-11-06T01:16:49.267Z,99732.66
2018-11-06T01:21:51.816Z,99730.48
2018-11-06T01:26:54.298Z,99729.98
2018-11-06T01:31:56.869Z,99734.97
2018-11-06T01:36:59.583Z,99723.48
2018-11-06T01:42:01.972Z,99714.92
2018-11-06T01:47:04.682Z,99717.48
2018-11-06T01:52:07.058Z,99714.53
2018-11-06T01:57:09.674Z,99724.02
2018-11-06T02:02:12.085Z,99721.30
2018-11-06T02:07:14.512Z,99732.19
2018-11-06T02:12:17.091Z,99727.11
2018-11-06T02:17:19.584Z,99717.80
2018-11-06T02:22:22.125Z,99718.20
2018-11-06T02:27:25.692Z,99727.05
2018-11-06T02:32:28.149Z,99712.42
2018-11-06T02:37:30.547Z,99711.92
2018-11-06T02:42:33.020Z,99700.27
2018-11-06T02:47:35.551Z,99690.57
2018-11-06T02:52:37.971Z,99706.05
2018-11-06T02:57:40.914Z,99730.38
2018-11-06T03:02:43.889Z,99737.08
2018-11-06T03:07:46.380Z,99743.16
2018-11-06T03:12:48.767Z,99755.67
2018-11-06T03:17:51.135Z,99737.06
2018-11-06T03:22:53.613Z,99719.02
2018-11-06T03:27:56.019Z,99725.08
2018-11-06T03:32:58.456Z,99740.04
2018-11-06T03:38:01.351Z,99728.19
2018-11-06T03:43:03.811Z,99732.31
2018-11-06T03:48:06.208Z,99741.12
2018-11-06T03:53:08.618Z,99742.16
2018-11-06T03:58:11.032Z,99748.75
2018-11-06T04:03:13.459Z,99747.48
2018-11-06T04:08:15.910Z,99758.82
2018-11-06T04:13:18.261Z,99752.91
2018-11-06T04:18:20.700Z,99739.37
2018-11-06T04:23:23.071Z,99721.73
2018-11-06T04:28:25.418Z,99727.74
2018-11-06T04:33:27.818Z,99719.84
2018-11-06T04:38:30.229Z,99716.72
2018-11-06T04:43:32.615Z,99729.16
2018-11-06T04:48:34.948Z,99724.30
2018-11-06T04:53:37.408Z,99732.77
2018-11-06T04:58:39.780Z,99726.59
2018-11-06T05:03:46.532Z,99719.37
2018-11-06T05:08:48.896Z,99728.97
2018-11-06T05:13:51.350Z,99725.03
2018-11-06T05:18:53.674Z,99734.59
2018-11-06T05:23:56.090Z,99732.74
2018-11-06T05:28:58.490Z,99726.89
2018-11-06T05:34:00.891Z,99731.18
2018-11-06T05:39:08.297Z,99736.23
2018-11-06T05:44:11.760Z,99745.58
2018-11-06T05:49:14.482Z,99732.56
2018-11-06T05:54:17.416Z,99739.34
2018-11-06T05:59:19.830Z,99737.42
2018-11-06T06:04:22.376Z,99740.14
2018-11-06T06:09:24.985Z,99756.11
2018-11-06T06:14:27.424Z,99763.02
2018-11-06T06:19:31.037Z,99764.75
2018-11-06T06:24:33.544Z,99771.97
2018-11-06T06:29:35.988Z,99773.83
2018-11-06T06:34:38.811Z,99774.80
2018-11-06T06:39:41.118Z,99774.63
2018-11-06T06:44:43.471Z,99766.98
2018-11-06T06:49:45.832Z,99772.13
2018-11-06T06:54:48.261Z,99762.17
2018-11-06T06:59:50.646Z,99757.03
2018-11-06T07:04:53.099Z,99758.73
2018-11-06T07:09:55.491Z,99767.77
2018-11-06T07:14:57.947Z,99768.00
2018-11-06T07:20:00.380Z,99760.38
2018-11-06T07:25:02.756Z,99756.87
2018-11-06T07:30:07.665Z,99772.13
2018-11-06T07:35:10.736Z,99770.32
2018-11-06T07:40:14.387Z,99762.70
2018-11-06T07:45:18.214Z,99759.44
2018-11-06T07:50:20.639Z,99758.98
2018-11-06T07:55:23.053Z,99770.06
2018-11-06T08:00:26.109Z,99780.29
2018-11-06T08:05:28.529Z,99771.27
2018-11-06T08:10:30.892Z,99763.17
2018-11-06T08:15:33.213Z,99757.71
2018-11-06T08:20:35.592Z,99755.50
2018-11-06T08:25:37.927Z,99745.36
2018-11-06T08:30:40.340Z,99741.89
2018-11-06T08:35:42.670Z,99736.92
2018-11-06T08:40:45.821Z,99728.61
2018-11-06T08:45:48.283Z,99733.87
2018-11-06T08:50:50.681Z,99736.67
2018-11-06T08:55:53.078Z,99738.21
2018-11-06T09:00:55.487Z,99738.22
2018-11-06T09:05:57.938Z,99737.20
2018-11-06T09:11:00.300Z,99731.33
2018-11-06T09:16:02.660Z,99722.50
2018-11-06T09:21:05.126Z,99718.44
2018-11-06T09:26:07.510Z,99721.75
2018-11-06T09:31:10.761Z,99711.20
2018-11-06T09:36:13.143Z,99714.73
2018-11-06T09:41:15.560Z,99733.98
2018-11-06T09:46:17.926Z,99737.50
2018-11-06T09:51:20.338Z,99743.58
2018-11-06T09:56:22.707Z,99738.14
2018-11-06T10:01:25.028Z,99731.34
2018-11-06T10:06:28.497Z,99727.91
2018-11-06T10:11:30.847Z,99742.95
2018-11-06T10:16:33.408Z,99727.60
2018-11-06T10:21:35.865Z,99722.15
2018-11-06T10:26:38.283Z,99710.78
2018-11-06T10:31:40.764Z,99706.01
2018-11-06T10:36:43.323Z,99701.34
2018-11-06T10:41:45.709Z,99686.86
2018-11-06T10:46:48.503Z,99679.09
2018-11-06T10:51:50.925Z,99671.64
2018-11-06T10:56:53.319Z,99659.27
2018-11-06T11:02:01.351Z,99652.61
2018-11-06T11:07:03.812Z,99652.02
2018-11-06T11:12:06.179Z,99645.81
2018-11-06T11:17:08.650Z,99640.40
2018-11-06T11:22:11.251Z,99633.13
2018-11-06T11:27:13.671Z,99622.77
2018-11-06T11:32:16.443Z,99615.35
2018-11-06T11:37:18.875Z,99613.29
2018-11-06T11:42:21.295Z,99622.22
2018-11-06T11:47:23.719Z,99618.96
2018-11-06T11:52:26.170Z,99609.05
2018-11-06T11:57:28.587Z,99602.80
2018-11-06T12:02:31.013Z,99586.16
2018-11-06T12:07:33.404Z,99597.34
2018-11-06T12:12:35.839Z,99590.58
2018-11-06T12:17:38.553Z,99582.18
2018-11-06T12:22:41.333Z,99580.17
2018-11-06T12:27:43.988Z,99575.69
2018-11-06T12:32:46.689Z,99566.17
2018-11-06T12:37:49.067Z,99560.59
2018-11-06T12:42:51.566Z,99559.09
2018-11-06T12:47:54.000Z,99549.05
2018-11-06T12:52:56.504Z,99564.09
2018-11-06T12:57:58.860Z,99556.45
2018-11-06T13:03:01.220Z,99551.41
2018-11-06T13:08:03.659Z,99555.62
2018-11-06T13:13:06.112Z,99547.41
2018-11-06T13:18:08.499Z,99543.27
2018-11-06T13:23:10.832Z,99529.89
2018-11-06T13:28:13.220Z,99518.09
2018-11-06T13:33:15.715Z,99528.30
2018-11-06T13:38:18.147Z,99521.43
2018-11-06T13:43:20.639Z,99519.04
2018-11-06T13:48:22.915Z,99521.59
2018-11-06T13:53:25.359Z,99518.44
2018-11-06T13:58:27.743Z,99517.39
2018-11-06T14:03:30.123Z,99525.67
2018-11-06T14:08:32.780Z,99526.74
2018-11-06T14:13:35.264Z,99525.20
2018-11-06T14:18:37.665Z,99522.30
2018-11-06T14:23:40.036Z,99521.45
2018-11-06T14:28:42.504Z,99525.63
2018-11-06T14:33:44.899Z,99519.23
2018-11-06T14:38:47.281Z,99515.57
2018-11-06T14:43:49.750Z,99521.40
2018-11-06T14:48:52.310Z,99526.74
2018-11-06T14:53:54.620Z,99535.41
2018-11-06T14:58:57.036Z,99539.11
2018-11-06T15:03:59.522Z,99536.91
2018-11-06T15:09:01.988Z,99526.76
2018-11-06T15:14:04.647Z,99529.61
2018-11-06T15:19:07.034Z,99534.45
2018-11-06T15:24:09.566Z,99545.22
2018-11-06T15:29:11.972Z,99542.45
2018-11-06T15:34:14.345Z,99546.09
2018-11-06T15:39:16.787Z,99544.48
2018-11-06T15:44:19.144Z,99533.03
2018-11-06T15:49:21.667Z,99529.73
2018-11-06T15:54:24.050Z,99538.97
2018-11-06T15:59:26.432Z,99550.28
2018-11-06T16:04:29.573Z,99549.02
2018-11-06T16:09:32.025Z,99543.65
2018-11-06T16:14:35.067Z,99546.16
2018-11-06T16:19:37.448Z,99553.20
2018-11-06T16:24:39.900Z,99555.23
2018-11-06T16:29:42.366Z,99547.39
2018-11-06T16:34:44.767Z,99546.95
2018-11-06T16:39:47.173Z,99553.94
2018-11-06T16:44:49.607Z,99554.75
2018-11-06T16:49:51.971Z,99577.41
2018-11-06T16:54:54.450Z,99606.30
2018-11-06T16:59:56.884Z,99631.86
2018-11-06T17:04:59.243Z,99630.78
2018-11-06T17:10:01.636Z,99639.34
2018-11-06T17:15:05.213Z,99654.73
2018-11-06T17:20:13.299Z,99653.03
2018-11-06T17:25:17.155Z,99654.95
2018-11-06T17:30:19.711Z,99666.17
2018-11-06T17:35:22.148Z,99654.00
2018-11-06T17:40:24.483Z,99661.69
2018-11-06T17:45:26.883Z,99665.45
2018-11-06T17:50:29.226Z,99679.16
2018-11-06T17:55:32.005Z,99698.12
2018-11-06T18:00:34.303Z,99696.22
2018-11-06T18:05:37.182Z,99713.18
2018-11-06T18:10:39.591Z,99712.30
2018-11-06T18:15:41.969Z,99705.70
2018-11-06T18:20:44.389Z,99717.98
2018-11-06T18:25:47.105Z,99709.75
2018-11-06T18:30:49.443Z,99712.56
2018-11-06T18:35:51.903Z,99720.73
2018-11-06T18:40:54.337Z,99710.97
2018-11-06T18:45:56.688Z,99720.10
2018-11-06T18:50:59.148Z,99707.53
2018-11-06T18:56:06.606Z,99723.05
2018-11-06T19:01:09.072Z,99724.39
2018-11-06T19:06:11.525Z,99713.19
2018-11-06T19:11:13.970Z,99729.52
2018-11-06T19:16:16.576Z,99745.88
2018-11-06T19:21:19.491Z,99756.12
2018-11-06T19:26:21.881Z,99767.83
2018-11-06T19:31:24.381Z,99784.08
2018-11-06T19:36:27.295Z,99790.34
2018-11-06T19:41:29.626Z,99793.67
2018-11-06T19:46:32.033Z,99803.17
2018-11-06T19:51:34.727Z,99800.79
2018-11-06T19:56:37.716Z,99809.16
2018-11-06T20:01:40.130Z,99815.02
2018-11-06T20:06:42.575Z,99816.63
2018-11-06T20:11:46.044Z,99829.34
2018-11-06T20:16:48.339Z,99827.56
2018-11-06T20:21:50.785Z,99845.88
2018-11-06T20:26:53.226Z,99845.39
2018-11-06T20:32:12.573Z,99834.53
2018-11-06T20:37:16.456Z,99844.61
2018-11-06T20:42:19.024Z,99832.91
2018-11-06T20:47:21.599Z,99837.92
2018-11-06T20:52:24.223Z,99839.30
2018-11-06T21:02:37.528Z,99842.70
2018-11-06T21:07:40.034Z,99846.20
2018-11-06T21:12:42.632Z,99848.53
2018-11-06T21:17:45.202Z,99842.80
2018-11-06T21:22:47.753Z,99853.84
2018-11-06T21:27:50.289Z,99853.84
2018-11-06T21:32:53.427Z,99858.21
2018-11-06T21:37:55.959Z,99870.69
2018-11-06T21:42:58.852Z,99860.70
2018-11-06T21:48:01.736Z,99863.82
2018-11-06T21:53:04.352Z,99851.14
2018-11-06T21:58:06.742Z,99851.72
2018-11-06T22:03:09.432Z,99844.86
2018-11-06T22:08:11.790Z,99833.61
2018-11-06T22:13:14.275Z,99832.59
2018-11-06T22:18:16.718Z,99831.44
2018-11-06T22:23:19.336Z,99836.96
2018-11-06T22:28:21.788Z,99852.09
2018-11-06T22:33:24.128Z,99870.12
2018-11-06T22:38:26.756Z,99869.80
2018-11-06T22:43:29.111Z,99861.91
2018-11-06T22:48:31.644Z,99862.61
2018-11-06T22:58:49.303Z,99884.88
2018-11-06T23:03:59.012Z,99890.17
2018-11-06T23:09:04.280Z,99895.27
2018-11-06T23:19:29.137Z,99898.65
2018-11-06T23:30:12.839Z,99895.96
2018-11-06T23:40:31.619Z,99895.36
2018-11-06T23:45:35.516Z,99895.84
2018-11-06T23:50:38.084Z,99894.19
2018-11-06T23:55:41.817Z,99898.81
